sensor_id;sensor_type;location;lat;lon;timestamp;P1;durP1;ratioP1;P2;durP2;ratioP2
75012;SDS011;63567;49.956;20.130;2023-06-14T00:00:21;13.03;;;7.10;;
75012;SDS011;63567;49.956;20.130;2023-06-14T00:02:47;11.68;;;7.55;;
75012;SDS011;63567;49.956;20.130;2023-06-14T00:05:12;12.48;;;7.40;;
75012;SDS011;63567;49.956;20.130;2023-06-14T00:07:38;11.48;;;7.07;;
75012;SDS011;63567;49.956;20.130;2023-06-14T00:10:08;11.57;;;7.03;;
75012;SDS011;63567;49.956;20.130;2023-06-14T00:12:35;11.98;;;7.93;;
75012;SDS011;63567;49.956;20.130;2023-06-14T00:15:01;11.15;;;7.18;;
75012;SDS011;63567;49.956;20.130;2023-06-14T00:17:27;12.05;;;7.30;;
75012;SDS011;63567;49.956;20.130;2023-06-14T00:19:55;12.93;;;7.22;;
75012;SDS011;63567;49.956;20.130;2023-06-14T00:22:24;10.80;;;6.30;;
75012;SDS011;63567;49.956;20.130;2023-06-14T00:24:50;10.98;;;5.88;;
75012;SDS011;63567;49.956;20.130;2023-06-14T00:27:18;11.32;;;6.68;;
75012;SDS011;63567;49.956;20.130;2023-06-14T00:29:43;11.50;;;7.25;;
75012;SDS011;63567;49.956;20.130;2023-06-14T00:32:08;13.00;;;7.67;;
75012;SDS011;63567;49.956;20.130;2023-06-14T00:34:34;11.40;;;6.23;;
75012;SDS011;63567;49.956;20.130;2023-06-14T00:36:59;14.05;;;7.85;;
75012;SDS011;63567;49.956;20.130;2023-06-14T00:39:25;11.45;;;7.22;;
75012;SDS011;63567;49.956;20.130;2023-06-14T00:41:50;11.53;;;7.33;;
75012;SDS011;63567;49.956;20.130;2023-06-14T00:44:16;14.63;;;7.77;;
75012;SDS011;63567;49.956;20.130;2023-06-14T00:46:41;11.07;;;6.47;;
75012;SDS011;63567;49.956;20.130;2023-06-14T00:49:07;13.07;;;6.50;;
75012;SDS011;63567;49.956;20.130;2023-06-14T00:51:33;11.45;;;6.82;;
75012;SDS011;63567;49.956;20.130;2023-06-14T00:53:59;13.20;;;6.80;;
75012;SDS011;63567;49.956;20.130;2023-06-14T00:56:25;12.48;;;6.55;;
75012;SDS011;63567;49.956;20.130;2023-06-14T00:58:52;12.30;;;7.05;;
75012;SDS011;63567;49.956;20.130;2023-06-14T01:01:18;11.65;;;6.75;;
75012;SDS011;63567;49.956;20.130;2023-06-14T01:03:43;13.00;;;7.13;;
75012;SDS011;63567;49.956;20.130;2023-06-14T01:11:45;12.98;;;7.50;;
75012;SDS011;63567;49.956;20.130;2023-06-14T01:14:15;13.82;;;7.20;;
75012;SDS011;63567;49.956;20.130;2023-06-14T01:16:42;14.05;;;7.53;;
75012;SDS011;63567;49.956;20.130;2023-06-14T01:19:10;12.93;;;7.30;;
75012;SDS011;63567;49.956;20.130;2023-06-14T01:21:38;13.82;;;7.20;;
75012;SDS011;63567;49.956;20.130;2023-06-14T01:24:06;13.80;;;7.25;;
75012;SDS011;63567;49.956;20.130;2023-06-14T01:26:33;12.82;;;7.43;;
75012;SDS011;63567;49.956;20.130;2023-06-14T01:29:00;13.13;;;7.07;;
75012;SDS011;63567;49.956;20.130;2023-06-14T01:31:26;14.25;;;7.13;;
75012;SDS011;63567;49.956;20.130;2023-06-14T01:33:52;12.57;;;7.03;;
75012;SDS011;63567;49.956;20.130;2023-06-14T01:36:21;14.20;;;7.07;;
75012;SDS011;63567;49.956;20.130;2023-06-14T01:41:14;14.05;;;7.70;;
75012;SDS011;63567;49.956;20.130;2023-06-14T01:43:42;16.48;;;7.60;;
75012;SDS011;63567;49.956;20.130;2023-06-14T01:46:09;16.60;;;8.63;;
75012;SDS011;63567;49.956;20.130;2023-06-14T01:48:35;17.38;;;8.75;;
75012;SDS011;63567;49.956;20.130;2023-06-14T01:51:01;18.42;;;8.52;;
75012;SDS011;63567;49.956;20.130;2023-06-14T01:53:26;16.80;;;7.93;;
75012;SDS011;63567;49.956;20.130;2023-06-14T01:55:51;16.47;;;8.37;;
75012;SDS011;63567;49.956;20.130;2023-06-14T01:58:18;13.98;;;8.35;;
75012;SDS011;63567;49.956;20.130;2023-06-14T02:00:44;16.90;;;8.77;;
75012;SDS011;63567;49.956;20.130;2023-06-14T02:03:10;17.67;;;8.00;;
75012;SDS011;63567;49.956;20.130;2023-06-14T02:05:36;14.43;;;7.18;;
75012;SDS011;63567;49.956;20.130;2023-06-14T02:08:04;15.60;;;7.55;;
75012;SDS011;63567;49.956;20.130;2023-06-14T02:10:29;13.63;;;7.03;;
75012;SDS011;63567;49.956;20.130;2023-06-14T02:12:54;17.37;;;8.03;;
75012;SDS011;63567;49.956;20.130;2023-06-14T02:15:19;13.97;;;7.13;;
75012;SDS011;63567;49.956;20.130;2023-06-14T02:17:46;16.02;;;7.95;;
75012;SDS011;63567;49.956;20.130;2023-06-14T02:20:12;14.75;;;7.57;;
75012;SDS011;63567;49.956;20.130;2023-06-14T02:22:38;16.25;;;7.45;;
75012;SDS011;63567;49.956;20.130;2023-06-14T02:25:03;13.90;;;7.18;;
75012;SDS011;63567;49.956;20.130;2023-06-14T02:27:29;16.10;;;8.05;;
75012;SDS011;63567;49.956;20.130;2023-06-14T02:29:54;14.67;;;6.77;;
75012;SDS011;63567;49.956;20.130;2023-06-14T02:32:19;14.17;;;6.90;;
75012;SDS011;63567;49.956;20.130;2023-06-14T02:34:46;14.80;;;7.43;;
75012;SDS011;63567;49.956;20.130;2023-06-14T02:37:14;14.48;;;7.40;;
75012;SDS011;63567;49.956;20.130;2023-06-14T02:39:40;16.33;;;8.15;;
75012;SDS011;63567;49.956;20.130;2023-06-14T02:42:05;14.53;;;7.07;;
75012;SDS011;63567;49.956;20.130;2023-06-14T02:44:31;14.02;;;7.82;;
75012;SDS011;63567;49.956;20.130;2023-06-14T02:46:57;17.25;;;7.78;;
75012;SDS011;63567;49.956;20.130;2023-06-14T02:49:23;14.73;;;7.75;;
75012;SDS011;63567;49.956;20.130;2023-06-14T02:51:49;15.10;;;7.83;;
75012;SDS011;63567;49.956;20.130;2023-06-14T02:54:14;15.93;;;8.03;;
75012;SDS011;63567;49.956;20.130;2023-06-14T02:56:39;15.73;;;8.03;;
75012;SDS011;63567;49.956;20.130;2023-06-14T02:59:05;14.73;;;7.88;;
75012;SDS011;63567;49.956;20.130;2023-06-14T03:01:32;16.95;;;8.25;;
75012;SDS011;63567;49.956;20.130;2023-06-14T03:04:03;17.50;;;8.23;;
75012;SDS011;63567;49.956;20.130;2023-06-14T03:06:29;15.23;;;7.70;;
75012;SDS011;63567;49.956;20.130;2023-06-14T03:08:55;14.57;;;8.07;;
75012;SDS011;63567;49.956;20.130;2023-06-14T03:11:25;15.25;;;8.02;;
75012;SDS011;63567;49.956;20.130;2023-06-14T03:13:51;15.15;;;8.27;;
75012;SDS011;63567;49.956;20.130;2023-06-14T03:16:16;15.00;;;8.18;;
75012;SDS011;63567;49.956;20.130;2023-06-14T03:18:44;13.55;;;7.53;;
75012;SDS011;63567;49.956;20.130;2023-06-14T03:21:10;15.07;;;8.23;;
75012;SDS011;63567;49.956;20.130;2023-06-14T03:23:35;14.65;;;7.47;;
75012;SDS011;63567;49.956;20.130;2023-06-14T03:26:01;15.03;;;8.07;;
75012;SDS011;63567;49.956;20.130;2023-06-14T03:28:26;17.80;;;9.03;;
75012;SDS011;63567;49.956;20.130;2023-06-14T03:30:51;13.87;;;7.77;;
75012;SDS011;63567;49.956;20.130;2023-06-14T03:33:17;17.77;;;8.70;;
75012;SDS011;63567;49.956;20.130;2023-06-14T03:35:42;17.40;;;8.37;;
75012;SDS011;63567;49.956;20.130;2023-06-14T03:38:08;17.13;;;9.23;;
75012;SDS011;63567;49.956;20.130;2023-06-14T03:40:33;14.90;;;8.43;;
75012;SDS011;63567;49.956;20.130;2023-06-14T03:42:58;16.03;;;8.50;;
75012;SDS011;63567;49.956;20.130;2023-06-14T03:45:24;15.83;;;8.27;;
75012;SDS011;63567;49.956;20.130;2023-06-14T03:47:49;16.80;;;8.25;;
75012;SDS011;63567;49.956;20.130;2023-06-14T03:50:15;17.23;;;8.73;;
75012;SDS011;63567;49.956;20.130;2023-06-14T03:52:42;16.75;;;8.48;;
75012;SDS011;63567;49.956;20.130;2023-06-14T03:55:08;17.15;;;9.00;;
75012;SDS011;63567;49.956;20.130;2023-06-14T03:57:35;16.88;;;9.25;;
75012;SDS011;63567;49.956;20.130;2023-06-14T04:00:00;14.27;;;7.60;;
75012;SDS011;63567;49.956;20.130;2023-06-14T04:02:25;15.87;;;8.37;;
75012;SDS011;63567;49.956;20.130;2023-06-14T04:04:53;14.50;;;8.95;;
75012;SDS011;63567;49.956;20.130;2023-06-14T04:07:19;14.82;;;8.82;;
75012;SDS011;63567;49.956;20.130;2023-06-14T04:09:45;14.85;;;8.75;;
75012;SDS011;63567;49.956;20.130;2023-06-14T04:12:11;14.57;;;8.60;;
75012;SDS011;63567;49.956;20.130;2023-06-14T04:14:36;15.32;;;8.48;;
75012;SDS011;63567;49.956;20.130;2023-06-14T04:17:02;16.85;;;9.45;;
75012;SDS011;63567;49.956;20.130;2023-06-14T04:19:27;16.75;;;8.95;;
75012;SDS011;63567;49.956;20.130;2023-06-14T04:21:52;16.97;;;8.87;;
75012;SDS011;63567;49.956;20.130;2023-06-14T04:24:18;16.87;;;9.03;;
75012;SDS011;63567;49.956;20.130;2023-06-14T04:26:44;16.08;;;8.68;;
75012;SDS011;63567;49.956;20.130;2023-06-14T04:29:10;16.35;;;8.55;;
75012;SDS011;63567;49.956;20.130;2023-06-14T04:31:39;15.50;;;7.90;;
75012;SDS011;63567;49.956;20.130;2023-06-14T04:34:07;18.30;;;9.13;;
75012;SDS011;63567;49.956;20.130;2023-06-14T04:36:34;16.75;;;8.43;;
75012;SDS011;63567;49.956;20.130;2023-06-14T04:39:02;16.10;;;8.35;;
75012;SDS011;63567;49.956;20.130;2023-06-14T04:41:32;18.38;;;8.35;;
75012;SDS011;63567;49.956;20.130;2023-06-14T04:43:57;17.65;;;9.35;;
75012;SDS011;63567;49.956;20.130;2023-06-14T04:46:26;17.80;;;8.48;;
75012;SDS011;63567;49.956;20.130;2023-06-14T04:48:53;16.02;;;8.20;;
75012;SDS011;63567;49.956;20.130;2023-06-14T04:51:19;14.02;;;7.65;;
75012;SDS011;63567;49.956;20.130;2023-06-14T04:53:47;16.42;;;8.07;;
75012;SDS011;63567;49.956;20.130;2023-06-14T04:56:14;14.77;;;7.57;;
75012;SDS011;63567;49.956;20.130;2023-06-14T04:58:39;13.05;;;7.18;;
75012;SDS011;63567;49.956;20.130;2023-06-14T05:01:05;14.33;;;7.33;;
75012;SDS011;63567;49.956;20.130;2023-06-14T05:03:30;13.57;;;8.10;;
75012;SDS011;63567;49.956;20.130;2023-06-14T05:05:56;13.70;;;7.20;;
75012;SDS011;63567;49.956;20.130;2023-06-14T05:08:22;14.27;;;7.22;;
75012;SDS011;63567;49.956;20.130;2023-06-14T05:10:48;13.43;;;7.45;;
75012;SDS011;63567;49.956;20.130;2023-06-14T05:13:14;14.32;;;7.85;;
75012;SDS011;63567;49.956;20.130;2023-06-14T05:15:39;15.57;;;6.97;;
75012;SDS011;63567;49.956;20.130;2023-06-14T05:18:05;12.97;;;6.67;;
75012;SDS011;63567;49.956;20.130;2023-06-14T05:20:30;11.80;;;6.30;;
75012;SDS011;63567;49.956;20.130;2023-06-14T05:22:55;12.40;;;7.28;;
75012;SDS011;63567;49.956;20.130;2023-06-14T05:25:22;11.93;;;6.70;;
75012;SDS011;63567;49.956;20.130;2023-06-14T05:27:47;11.90;;;6.13;;
75012;SDS011;63567;49.956;20.130;2023-06-14T05:30:13;10.43;;;6.03;;
75012;SDS011;63567;49.956;20.130;2023-06-14T05:32:39;11.65;;;7.00;;
75012;SDS011;63567;49.956;20.130;2023-06-14T05:35:05;12.82;;;7.25;;
75012;SDS011;63567;49.956;20.130;2023-06-14T05:37:31;13.43;;;6.43;;
75012;SDS011;63567;49.956;20.130;2023-06-14T05:39:56;12.05;;;6.45;;
75012;SDS011;63567;49.956;20.130;2023-06-14T05:42:22;13.77;;;7.50;;
75012;SDS011;63567;49.956;20.130;2023-06-14T05:44:47;12.03;;;6.73;;
75012;SDS011;63567;49.956;20.130;2023-06-14T05:47:12;13.53;;;7.53;;
75012;SDS011;63567;49.956;20.130;2023-06-14T05:49:37;13.77;;;7.20;;
75012;SDS011;63567;49.956;20.130;2023-06-14T05:52:03;14.63;;;7.43;;
75012;SDS011;63567;49.956;20.130;2023-06-14T05:54:28;14.32;;;7.68;;
75012;SDS011;63567;49.956;20.130;2023-06-14T05:56:53;14.07;;;7.43;;
75012;SDS011;63567;49.956;20.130;2023-06-14T05:59:19;14.30;;;8.30;;
75012;SDS011;63567;49.956;20.130;2023-06-14T06:01:44;15.30;;;8.03;;
75012;SDS011;63567;49.956;20.130;2023-06-14T06:04:09;15.40;;;8.50;;
75012;SDS011;63567;49.956;20.130;2023-06-14T06:06:35;14.47;;;8.53;;
75012;SDS011;63567;49.956;20.130;2023-06-14T06:09:00;14.43;;;8.63;;
75012;SDS011;63567;49.956;20.130;2023-06-14T06:11:26;15.43;;;9.07;;
75012;SDS011;63567;49.956;20.130;2023-06-14T06:13:51;18.43;;;9.30;;
75012;SDS011;63567;49.956;20.130;2023-06-14T06:16:16;15.67;;;9.63;;
75012;SDS011;63567;49.956;20.130;2023-06-14T06:18:41;16.17;;;9.30;;
75012;SDS011;63567;49.956;20.130;2023-06-14T06:21:07;15.97;;;8.93;;
75012;SDS011;63567;49.956;20.130;2023-06-14T06:23:32;16.63;;;8.87;;
75012;SDS011;63567;49.956;20.130;2023-06-14T06:25:57;13.77;;;7.97;;
75012;SDS011;63567;49.956;20.130;2023-06-14T06:28:23;14.98;;;8.32;;
75012;SDS011;63567;49.956;20.130;2023-06-14T06:30:48;11.17;;;7.33;;
75012;SDS011;63567;49.956;20.130;2023-06-14T06:33:13;11.50;;;7.00;;
75012;SDS011;63567;49.956;20.130;2023-06-14T06:35:39;11.07;;;6.25;;
75012;SDS011;63567;49.956;20.130;2023-06-14T06:38:05;11.13;;;7.00;;
75012;SDS011;63567;49.956;20.130;2023-06-14T06:40:30;9.38;;;5.63;;
75012;SDS011;63567;49.956;20.130;2023-06-14T06:42:55;9.87;;;6.27;;
75012;SDS011;63567;49.956;20.130;2023-06-14T06:45:21;7.50;;;5.30;;
75012;SDS011;63567;49.956;20.130;2023-06-14T06:47:48;9.20;;;5.80;;
75012;SDS011;63567;49.956;20.130;2023-06-14T06:50:13;8.80;;;5.28;;
75012;SDS011;63567;49.956;20.130;2023-06-14T06:52:39;9.23;;;5.63;;
75012;SDS011;63567;49.956;20.130;2023-06-14T06:55:04;9.23;;;5.50;;
75012;SDS011;63567;49.956;20.130;2023-06-14T06:57:29;9.43;;;5.78;;
75012;SDS011;63567;49.956;20.130;2023-06-14T06:59:55;7.47;;;4.87;;
75012;SDS011;63567;49.956;20.130;2023-06-14T07:02:20;7.27;;;4.60;;
75012;SDS011;63567;49.956;20.130;2023-06-14T07:04:45;8.83;;;4.80;;
75012;SDS011;63567;49.956;20.130;2023-06-14T07:07:11;7.68;;;4.22;;
75012;SDS011;63567;49.956;20.130;2023-06-14T07:09:37;7.43;;;4.65;;
75012;SDS011;63567;49.956;20.130;2023-06-14T07:12:02;6.33;;;4.23;;
75012;SDS011;63567;49.956;20.130;2023-06-14T07:14:27;8.43;;;4.60;;
75012;SDS011;63567;49.956;20.130;2023-06-14T07:16:55;7.47;;;5.00;;
75012;SDS011;63567;49.956;20.130;2023-06-14T07:19:20;6.03;;;3.93;;
75012;SDS011;63567;49.956;20.130;2023-06-14T07:21:45;6.27;;;3.87;;
75012;SDS011;63567;49.956;20.130;2023-06-14T07:24:11;7.17;;;3.70;;
75012;SDS011;63567;49.956;20.130;2023-06-14T07:26:36;6.47;;;3.88;;
75012;SDS011;63567;49.956;20.130;2023-06-14T07:29:02;6.50;;;3.80;;
75012;SDS011;63567;49.956;20.130;2023-06-14T07:31:27;5.93;;;3.80;;
75012;SDS011;63567;49.956;20.130;2023-06-14T07:33:53;5.65;;;3.38;;
75012;SDS011;63567;49.956;20.130;2023-06-14T07:36:18;6.33;;;3.50;;
75012;SDS011;63567;49.956;20.130;2023-06-14T07:38:43;5.93;;;3.97;;
75012;SDS011;63567;49.956;20.130;2023-06-14T07:41:09;5.63;;;3.75;;
75012;SDS011;63567;49.956;20.130;2023-06-14T07:43:34;5.53;;;3.33;;
75012;SDS011;63567;49.956;20.130;2023-06-14T07:46:00;4.18;;;3.25;;
75012;SDS011;63567;49.956;20.130;2023-06-14T07:48:25;5.05;;;3.22;;
75012;SDS011;63567;49.956;20.130;2023-06-14T07:50:51;4.70;;;3.10;;
75012;SDS011;63567;49.956;20.130;2023-06-14T07:53:16;4.93;;;3.40;;
75012;SDS011;63567;49.956;20.130;2023-06-14T07:55:41;4.37;;;2.90;;
75012;SDS011;63567;49.956;20.130;2023-06-14T07:58:08;3.95;;;2.83;;
75012;SDS011;63567;49.956;20.130;2023-06-14T08:00:34;4.22;;;3.25;;
75012;SDS011;63567;49.956;20.130;2023-06-14T08:02:59;4.72;;;2.88;;
75012;SDS011;63567;49.956;20.130;2023-06-14T08:05:28;3.90;;;2.53;;
75012;SDS011;63567;49.956;20.130;2023-06-14T08:07:53;2.95;;;2.13;;
75012;SDS011;63567;49.956;20.130;2023-06-14T08:10:19;3.65;;;2.40;;
75012;SDS011;63567;49.956;20.130;2023-06-14T08:12:45;3.80;;;2.47;;
75012;SDS011;63567;49.956;20.130;2023-06-14T08:15:10;2.90;;;1.83;;
75012;SDS011;63567;49.956;20.130;2023-06-14T08:17:36;2.63;;;2.05;;
75012;SDS011;63567;49.956;20.130;2023-06-14T08:20:01;3.20;;;1.90;;
75012;SDS011;63567;49.956;20.130;2023-06-14T08:22:29;3.08;;;2.30;;
75012;SDS011;63567;49.956;20.130;2023-06-14T08:24:57;3.85;;;2.40;;
75012;SDS011;63567;49.956;20.130;2023-06-14T08:27:22;3.95;;;2.80;;
75012;SDS011;63567;49.956;20.130;2023-06-14T08:29:48;3.58;;;2.33;;
75012;SDS011;63567;49.956;20.130;2023-06-14T08:32:13;3.13;;;2.10;;
75012;SDS011;63567;49.956;20.130;2023-06-14T08:34:38;4.00;;;2.30;;
75012;SDS011;63567;49.956;20.130;2023-06-14T08:37:04;3.33;;;2.17;;
75012;SDS011;63567;49.956;20.130;2023-06-14T08:39:30;3.10;;;2.15;;
75012;SDS011;63567;49.956;20.130;2023-06-14T08:41:55;4.10;;;2.40;;
75012;SDS011;63567;49.956;20.130;2023-06-14T08:44:22;3.08;;;2.35;;
75012;SDS011;63567;49.956;20.130;2023-06-14T08:46:47;2.43;;;1.83;;
75012;SDS011;63567;49.956;20.130;2023-06-14T08:49:13;3.00;;;1.80;;
75012;SDS011;63567;49.956;20.130;2023-06-14T08:51:41;2.78;;;2.17;;
75012;SDS011;63567;49.956;20.130;2023-06-14T08:54:08;3.50;;;2.05;;
75012;SDS011;63567;49.956;20.130;2023-06-14T08:56:36;3.33;;;2.20;;
75012;SDS011;63567;49.956;20.130;2023-06-14T08:59:02;5.07;;;2.72;;
75012;SDS011;63567;49.956;20.130;2023-06-14T09:01:30;3.92;;;2.22;;
75012;SDS011;63567;49.956;20.130;2023-06-14T09:03:59;4.13;;;2.90;;
75012;SDS011;63567;49.956;20.130;2023-06-14T09:06:24;3.90;;;2.80;;
75012;SDS011;63567;49.956;20.130;2023-06-14T09:08:50;4.15;;;3.00;;
75012;SDS011;63567;49.956;20.130;2023-06-14T09:11:17;4.78;;;3.40;;
75012;SDS011;63567;49.956;20.130;2023-06-14T09:13:44;5.22;;;3.78;;
75012;SDS011;63567;49.956;20.130;2023-06-14T09:16:11;4.63;;;3.42;;
75012;SDS011;63567;49.956;20.130;2023-06-14T09:21:03;4.38;;;3.97;;
75012;SDS011;63567;49.956;20.130;2023-06-14T09:23:30;5.00;;;3.33;;
75012;SDS011;63567;49.956;20.130;2023-06-14T09:26:01;4.55;;;3.63;;
75012;SDS011;63567;49.956;20.130;2023-06-14T09:28:26;5.50;;;4.13;;
75012;SDS011;63567;49.956;20.130;2023-06-14T09:30:52;4.40;;;3.88;;
75012;SDS011;63567;49.956;20.130;2023-06-14T09:33:18;4.80;;;3.90;;
75012;SDS011;63567;49.956;20.130;2023-06-14T09:35:45;4.78;;;4.28;;
75012;SDS011;63567;49.956;20.130;2023-06-14T09:38:11;5.05;;;4.13;;
75012;SDS011;63567;49.956;20.130;2023-06-14T09:40:36;5.20;;;4.00;;
75012;SDS011;63567;49.956;20.130;2023-06-14T09:43:03;4.60;;;4.10;;
75012;SDS011;63567;49.956;20.130;2023-06-14T09:45:31;4.68;;;4.20;;
75012;SDS011;63567;49.956;20.130;2023-06-14T09:47:57;5.00;;;4.50;;
75012;SDS011;63567;49.956;20.130;2023-06-14T09:50:23;5.27;;;4.10;;
75012;SDS011;63567;49.956;20.130;2023-06-14T09:52:48;5.13;;;4.00;;
75012;SDS011;63567;49.956;20.130;2023-06-14T09:55:17;4.90;;;4.05;;
75012;SDS011;63567;49.956;20.130;2023-06-14T09:57:44;5.18;;;4.05;;
75012;SDS011;63567;49.956;20.130;2023-06-14T10:00:12;5.45;;;3.90;;
75012;SDS011;63567;49.956;20.130;2023-06-14T10:02:40;4.60;;;3.55;;
75012;SDS011;63567;49.956;20.130;2023-06-14T10:05:08;5.28;;;4.20;;
75012;SDS011;63567;49.956;20.130;2023-06-14T10:07:40;4.45;;;3.67;;
75012;SDS011;63567;49.956;20.130;2023-06-14T10:10:07;5.07;;;3.95;;
75012;SDS011;63567;49.956;20.130;2023-06-14T10:12:33;4.80;;;4.05;;
75012;SDS011;63567;49.956;20.130;2023-06-14T10:14:58;4.90;;;3.70;;
75012;SDS011;63567;49.956;20.130;2023-06-14T10:20:05;5.75;;;4.45;;
75012;SDS011;63567;49.956;20.130;2023-06-14T10:23:03;4.80;;;3.58;;
75012;SDS011;63567;49.956;20.130;2023-06-14T10:25:35;4.20;;;3.42;;
75012;SDS011;63567;49.956;20.130;2023-06-14T10:28:16;5.00;;;4.20;;
75012;SDS011;63567;49.956;20.130;2023-06-14T10:31:02;4.47;;;3.88;;
75012;SDS011;63567;49.956;20.130;2023-06-14T10:33:31;5.05;;;4.00;;
75012;SDS011;63567;49.956;20.130;2023-06-14T10:36:07;5.13;;;3.90;;
75012;SDS011;63567;49.956;20.130;2023-06-14T10:38:32;5.68;;;4.20;;
75012;SDS011;63567;49.956;20.130;2023-06-14T10:40:59;6.10;;;4.00;;
75012;SDS011;63567;49.956;20.130;2023-06-14T10:43:25;5.60;;;4.20;;
75012;SDS011;63567;49.956;20.130;2023-06-14T10:48:42;5.93;;;4.35;;
75012;SDS011;63567;49.956;20.130;2023-06-14T10:51:18;6.22;;;4.78;;
75012;SDS011;63567;49.956;20.130;2023-06-14T10:53:46;6.38;;;5.00;;
75012;SDS011;63567;49.956;20.130;2023-06-14T10:56:29;6.43;;;4.68;;
75012;SDS011;63567;49.956;20.130;2023-06-14T10:58:56;6.20;;;4.53;;
75012;SDS011;63567;49.956;20.130;2023-06-14T11:01:32;6.25;;;5.25;;
75012;SDS011;63567;49.956;20.130;2023-06-14T11:04:08;5.80;;;4.90;;
75012;SDS011;63567;49.956;20.130;2023-06-14T11:06:41;6.82;;;5.70;;
75012;SDS011;63567;49.956;20.130;2023-06-14T11:12:09;7.28;;;5.55;;
75012;SDS011;63567;49.956;20.130;2023-06-14T11:14:36;8.15;;;5.82;;
75012;SDS011;63567;49.956;20.130;2023-06-14T11:17:03;8.45;;;6.07;;
75012;SDS011;63567;49.956;20.130;2023-06-14T11:19:29;7.03;;;5.57;;
75012;SDS011;63567;49.956;20.130;2023-06-14T11:21:54;7.50;;;5.88;;
75012;SDS011;63567;49.956;20.130;2023-06-14T11:24:19;8.27;;;6.83;;
75012;SDS011;63567;49.956;20.130;2023-06-14T11:26:46;8.43;;;6.43;;
75012;SDS011;63567;49.956;20.130;2023-06-14T11:29:12;8.60;;;6.47;;
75012;SDS011;63567;49.956;20.130;2023-06-14T11:31:42;8.82;;;6.70;;
75012;SDS011;63567;49.956;20.130;2023-06-14T11:34:10;8.63;;;6.90;;
75012;SDS011;63567;49.956;20.130;2023-06-14T11:36:36;7.15;;;5.80;;
75012;SDS011;63567;49.956;20.130;2023-06-14T11:39:02;7.40;;;6.30;;
75012;SDS011;63567;49.956;20.130;2023-06-14T11:41:43;6.85;;;6.07;;
75012;SDS011;63567;49.956;20.130;2023-06-14T11:44:09;7.75;;;6.00;;
75012;SDS011;63567;49.956;20.130;2023-06-14T11:46:35;8.60;;;7.03;;
75012;SDS011;63567;49.956;20.130;2023-06-14T11:49:01;7.63;;;6.57;;
75012;SDS011;63567;49.956;20.130;2023-06-14T11:51:32;7.57;;;5.95;;
75012;SDS011;63567;49.956;20.130;2023-06-14T11:53:58;7.90;;;7.00;;
75012;SDS011;63567;49.956;20.130;2023-06-14T11:56:25;10.38;;;7.82;;
75012;SDS011;63567;49.956;20.130;2023-06-14T11:58:52;9.38;;;7.43;;
75012;SDS011;63567;49.956;20.130;2023-06-14T12:01:17;8.05;;;7.00;;
75012;SDS011;63567;49.956;20.130;2023-06-14T12:03:50;7.13;;;5.85;;
75012;SDS011;63567;49.956;20.130;2023-06-14T12:06:25;8.43;;;6.88;;
75012;SDS011;63567;49.956;20.130;2023-06-14T12:08:55;8.27;;;7.07;;
75012;SDS011;63567;49.956;20.130;2023-06-14T12:11:21;7.93;;;7.13;;
75012;SDS011;63567;49.956;20.130;2023-06-14T12:13:46;7.47;;;6.78;;
75012;SDS011;63567;49.956;20.130;2023-06-14T12:16:13;8.65;;;7.82;;
75012;SDS011;63567;49.956;20.130;2023-06-14T12:18:39;6.53;;;5.93;;
75012;SDS011;63567;49.956;20.130;2023-06-14T12:21:06;6.82;;;6.13;;
75012;SDS011;63567;49.956;20.130;2023-06-14T12:23:42;7.97;;;7.03;;
75012;SDS011;63567;49.956;20.130;2023-06-14T12:26:12;7.03;;;6.32;;
75012;SDS011;63567;49.956;20.130;2023-06-14T12:28:39;7.32;;;6.65;;
75012;SDS011;63567;49.956;20.130;2023-06-14T12:31:07;7.35;;;6.65;;
75012;SDS011;63567;49.956;20.130;2023-06-14T12:33:32;7.07;;;6.47;;
75012;SDS011;63567;49.956;20.130;2023-06-14T12:35:57;7.47;;;6.77;;
75012;SDS011;63567;49.956;20.130;2023-06-14T12:38:24;7.50;;;6.80;;
75012;SDS011;63567;49.956;20.130;2023-06-14T12:40:49;8.23;;;7.53;;
75012;SDS011;63567;49.956;20.130;2023-06-14T12:43:15;8.97;;;8.17;;
75012;SDS011;63567;49.956;20.130;2023-06-14T12:45:40;9.20;;;8.40;;
75012;SDS011;63567;49.956;20.130;2023-06-14T12:48:05;7.83;;;7.13;;
75012;SDS011;63567;49.956;20.130;2023-06-14T12:50:31;9.00;;;8.10;;
75012;SDS011;63567;49.956;20.130;2023-06-14T12:52:56;8.65;;;7.82;;
75012;SDS011;63567;49.956;20.130;2023-06-14T12:55:21;7.73;;;6.93;;
75012;SDS011;63567;49.956;20.130;2023-06-14T12:57:46;8.53;;;7.73;;
75012;SDS011;63567;49.956;20.130;2023-06-14T13:00:14;9.10;;;8.30;;
75012;SDS011;63567;49.956;20.130;2023-06-14T13:02:40;8.65;;;7.82;;
75012;SDS011;63567;49.956;20.130;2023-06-14T13:05:05;9.57;;;8.87;;
75012;SDS011;63567;49.956;20.130;2023-06-14T13:07:31;8.18;;;7.25;;
75012;SDS011;63567;49.956;20.130;2023-06-14T13:09:56;9.90;;;9.10;;
75012;SDS011;63567;49.956;20.130;2023-06-14T13:12:21;10.33;;;9.57;;
75012;SDS011;63567;49.956;20.130;2023-06-14T13:14:46;8.80;;;8.03;;
75012;SDS011;63567;49.956;20.130;2023-06-14T13:17:12;9.17;;;8.40;;
75012;SDS011;63567;49.956;20.130;2023-06-14T13:19:37;11.20;;;10.37;;
75012;SDS011;63567;49.956;20.130;2023-06-14T13:22:02;11.70;;;10.90;;
75012;SDS011;63567;49.956;20.130;2023-06-14T13:24:28;10.05;;;9.25;;
75012;SDS011;63567;49.956;20.130;2023-06-14T13:26:54;9.65;;;8.95;;
75012;SDS011;63567;49.956;20.130;2023-06-14T13:29:20;9.02;;;8.23;;
75012;SDS011;63567;49.956;20.130;2023-06-14T13:31:46;7.03;;;6.43;;
75012;SDS011;63567;49.956;20.130;2023-06-14T13:34:11;9.05;;;8.40;;
75012;SDS011;63567;49.956;20.130;2023-06-14T13:36:36;6.88;;;6.25;;
75012;SDS011;63567;49.956;20.130;2023-06-14T13:39:02;8.13;;;7.53;;
75012;SDS011;63567;49.956;20.130;2023-06-14T13:41:28;10.13;;;9.32;;
75012;SDS011;63567;49.956;20.130;2023-06-14T13:43:58;8.93;;;8.13;;
75012;SDS011;63567;49.956;20.130;2023-06-14T13:46:26;9.65;;;8.95;;
75012;SDS011;63567;49.956;20.130;2023-06-14T13:48:52;8.27;;;7.68;;
75012;SDS011;63567;49.956;20.130;2023-06-14T13:51:17;9.15;;;8.55;;
75012;SDS011;63567;49.956;20.130;2023-06-14T13:53:47;8.63;;;8.02;;
75012;SDS011;63567;49.956;20.130;2023-06-14T13:56:14;7.28;;;6.57;;
75012;SDS011;63567;49.956;20.130;2023-06-14T13:58:39;7.45;;;6.75;;
75012;SDS011;63567;49.956;20.130;2023-06-14T14:01:05;7.23;;;6.63;;
75012;SDS011;63567;49.956;20.130;2023-06-14T14:03:33;7.57;;;6.88;;
75012;SDS011;63567;49.956;20.130;2023-06-14T14:06:00;7.22;;;6.63;;
75012;SDS011;63567;49.956;20.130;2023-06-14T14:08:26;7.18;;;6.57;;
75012;SDS011;63567;49.956;20.130;2023-06-14T14:10:52;5.67;;;5.17;;
75012;SDS011;63567;49.956;20.130;2023-06-14T14:13:17;6.67;;;6.07;;
75012;SDS011;63567;49.956;20.130;2023-06-14T14:15:42;6.33;;;5.73;;
75012;SDS011;63567;49.956;20.130;2023-06-14T14:18:08;7.38;;;6.82;;
75012;SDS011;63567;49.956;20.130;2023-06-14T14:20:33;6.27;;;5.67;;
75012;SDS011;63567;49.956;20.130;2023-06-14T14:22:59;6.25;;;5.75;;
75012;SDS011;63567;49.956;20.130;2023-06-14T14:25:24;6.93;;;6.32;;
75012;SDS011;63567;49.956;20.130;2023-06-14T14:27:50;5.80;;;5.30;;
75012;SDS011;63567;49.956;20.130;2023-06-14T14:30:15;6.35;;;5.85;;
75012;SDS011;63567;49.956;20.130;2023-06-14T14:32:41;6.00;;;5.45;;
75012;SDS011;63567;49.956;20.130;2023-06-14T14:35:07;6.63;;;6.10;;
75012;SDS011;63567;49.956;20.130;2023-06-14T14:37:33;6.00;;;4.82;;
75012;SDS011;63567;49.956;20.130;2023-06-14T14:39:58;10.57;;;9.77;;
75012;SDS011;63567;49.956;20.130;2023-06-14T14:42:23;15.70;;;14.70;;